sensor_id;sensor_type;location;lat;lon;timestamp;P1;durP1;ratioP1;P2;durP2;ratioP2
56122;SDS011;42426;46.104;19.656;2023-12-14T00:01:53;19.95;;;12.68;;
56122;SDS011;42426;46.104;19.656;2023-12-14T00:04:19;24.30;;;13.52;;
56122;SDS011;42426;46.104;19.656;2023-12-14T00:06:45;18.63;;;13.63;;
56122;SDS011;42426;46.104;19.656;2023-12-14T00:09:11;18.98;;;12.10;;
56122;SDS011;42426;46.104;19.656;2023-12-14T00:11:38;17.13;;;12.65;;
56122;SDS011;42426;46.104;19.656;2023-12-14T00:14:04;22.27;;;13.73;;
56122;SDS011;42426;46.104;19.656;2023-12-14T00:16:31;26.02;;;15.52;;
56122;SDS011;42426;46.104;19.656;2023-12-14T00:18:57;22.52;;;14.50;;
56122;SDS011;42426;46.104;19.656;2023-12-14T00:21:23;23.33;;;15.23;;
56122;SDS011;42426;46.104;19.656;2023-12-14T00:23:49;21.55;;;15.57;;
56122;SDS011;42426;46.104;19.656;2023-12-14T00:26:15;21.15;;;14.88;;
56122;SDS011;42426;46.104;19.656;2023-12-14T00:28:42;22.60;;;14.27;;
56122;SDS011;42426;46.104;19.656;2023-12-14T00:31:08;21.40;;;13.55;;
56122;SDS011;42426;46.104;19.656;2023-12-14T00:33:34;17.52;;;12.57;;
56122;SDS011;42426;46.104;19.656;2023-12-14T00:36:00;18.48;;;12.93;;
56122;SDS011;42426;46.104;19.656;2023-12-14T00:38:27;16.45;;;12.27;;
56122;SDS011;42426;46.104;19.656;2023-12-14T00:40:53;20.40;;;13.55;;
56122;SDS011;42426;46.104;19.656;2023-12-14T00:43:19;17.55;;;13.38;;
56122;SDS011;42426;46.104;19.656;2023-12-14T00:45:46;18.83;;;13.23;;
56122;SDS011;42426;46.104;19.656;2023-12-14T00:48:12;19.42;;;14.57;;
56122;SDS011;42426;46.104;19.656;2023-12-14T00:50:38;22.02;;;15.35;;
56122;SDS011;42426;46.104;19.656;2023-12-14T00:53:04;16.60;;;12.27;;
56122;SDS011;42426;46.104;19.656;2023-12-14T00:55:30;17.17;;;12.77;;
56122;SDS011;42426;46.104;19.656;2023-12-14T00:57:56;23.10;;;14.07;;
56122;SDS011;42426;46.104;19.656;2023-12-14T01:00:22;22.08;;;13.93;;
56122;SDS011;42426;46.104;19.656;2023-12-14T01:02:49;18.42;;;14.43;;
56122;SDS011;42426;46.104;19.656;2023-12-14T01:05:15;18.10;;;12.30;;
56122;SDS011;42426;46.104;19.656;2023-12-14T01:07:42;19.20;;;12.43;;
56122;SDS011;42426;46.104;19.656;2023-12-14T01:10:08;18.35;;;11.20;;
56122;SDS011;42426;46.104;19.656;2023-12-14T01:12:34;20.42;;;14.10;;
56122;SDS011;42426;46.104;19.656;2023-12-14T01:15:00;16.75;;;12.75;;
56122;SDS011;42426;46.104;19.656;2023-12-14T01:17:26;17.77;;;12.38;;
56122;SDS011;42426;46.104;19.656;2023-12-14T01:19:53;20.42;;;13.30;;
56122;SDS011;42426;46.104;19.656;2023-12-14T01:22:20;21.00;;;12.82;;
56122;SDS011;42426;46.104;19.656;2023-12-14T01:24:46;17.63;;;12.65;;
56122;SDS011;42426;46.104;19.656;2023-12-14T01:27:12;19.75;;;12.50;;
56122;SDS011;42426;46.104;19.656;2023-12-14T01:29:39;22.65;;;13.60;;
56122;SDS011;42426;46.104;19.656;2023-12-14T01:32:05;19.85;;;13.18;;
56122;SDS011;42426;46.104;19.656;2023-12-14T01:34:31;16.67;;;11.65;;
56122;SDS011;42426;46.104;19.656;2023-12-14T01:36:57;18.20;;;12.43;;
56122;SDS011;42426;46.104;19.656;2023-12-14T01:39:23;24.95;;;15.07;;
56122;SDS011;42426;46.104;19.656;2023-12-14T01:41:49;21.42;;;14.35;;
56122;SDS011;42426;46.104;19.656;2023-12-14T01:44:15;19.38;;;11.60;;
56122;SDS011;42426;46.104;19.656;2023-12-14T01:46:41;24.55;;;14.23;;
56122;SDS011;42426;46.104;19.656;2023-12-14T01:49:07;18.30;;;12.77;;
56122;SDS011;42426;46.104;19.656;2023-12-14T01:51:33;18.90;;;13.20;;
56122;SDS011;42426;46.104;19.656;2023-12-14T01:54:00;21.63;;;13.43;;
56122;SDS011;42426;46.104;19.656;2023-12-14T01:56:26;18.17;;;11.43;;
56122;SDS011;42426;46.104;19.656;2023-12-14T01:58:52;24.17;;;15.40;;
56122;SDS011;42426;46.104;19.656;2023-12-14T02:03:49;24.00;;;15.13;;
56122;SDS011;42426;46.104;19.656;2023-12-14T02:06:16;29.05;;;17.27;;
56122;SDS011;42426;46.104;19.656;2023-12-14T02:08:42;23.90;;;15.20;;
56122;SDS011;42426;46.104;19.656;2023-12-14T02:11:08;24.27;;;14.15;;
56122;SDS011;42426;46.104;19.656;2023-12-14T02:13:34;23.90;;;15.35;;
56122;SDS011;42426;46.104;19.656;2023-12-14T02:16:00;28.48;;;16.05;;
56122;SDS011;42426;46.104;19.656;2023-12-14T02:18:27;22.73;;;14.82;;
56122;SDS011;42426;46.104;19.656;2023-12-14T02:20:53;28.92;;;15.27;;
56122;SDS011;42426;46.104;19.656;2023-12-14T02:23:21;21.70;;;13.40;;
56122;SDS011;42426;46.104;19.656;2023-12-14T02:25:47;19.98;;;13.38;;
56122;SDS011;42426;46.104;19.656;2023-12-14T02:28:13;19.80;;;13.15;;
56122;SDS011;42426;46.104;19.656;2023-12-14T02:30:39;21.15;;;14.13;;
56122;SDS011;42426;46.104;19.656;2023-12-14T02:33:05;23.88;;;14.30;;
56122;SDS011;42426;46.104;19.656;2023-12-14T02:35:31;23.88;;;14.63;;
56122;SDS011;42426;46.104;19.656;2023-12-14T02:37:57;24.00;;;14.40;;
56122;SDS011;42426;46.104;19.656;2023-12-14T02:40:23;23.60;;;15.30;;
56122;SDS011;42426;46.104;19.656;2023-12-14T02:42:49;22.00;;;14.68;;
56122;SDS011;42426;46.104;19.656;2023-12-14T02:45:16;30.25;;;17.60;;
56122;SDS011;42426;46.104;19.656;2023-12-14T02:47:42;30.30;;;16.52;;
56122;SDS011;42426;46.104;19.656;2023-12-14T02:50:08;26.13;;;15.60;;
56122;SDS011;42426;46.104;19.656;2023-12-14T02:52:35;23.38;;;15.65;;
56122;SDS011;42426;46.104;19.656;2023-12-14T02:55:01;29.42;;;16.20;;
56122;SDS011;42426;46.104;19.656;2023-12-14T02:57:27;24.88;;;15.32;;
56122;SDS011;42426;46.104;19.656;2023-12-14T02:59:53;25.73;;;15.27;;
56122;SDS011;42426;46.104;19.656;2023-12-14T03:02:19;26.45;;;15.13;;
56122;SDS011;42426;46.104;19.656;2023-12-14T03:04:46;31.23;;;17.98;;
56122;SDS011;42426;46.104;19.656;2023-12-14T03:07:12;28.55;;;17.15;;
56122;SDS011;42426;46.104;19.656;2023-12-14T03:09:41;27.88;;;16.50;;
56122;SDS011;42426;46.104;19.656;2023-12-14T03:12:09;22.50;;;14.63;;
56122;SDS011;42426;46.104;19.656;2023-12-14T03:14:35;36.17;;;22.48;;
56122;SDS011;42426;46.104;19.656;2023-12-14T03:17:01;39.40;;;22.50;;
56122;SDS011;42426;46.104;19.656;2023-12-14T03:19:28;40.88;;;22.65;;
56122;SDS011;42426;46.104;19.656;2023-12-14T03:21:54;31.95;;;17.05;;
56122;SDS011;42426;46.104;19.656;2023-12-14T03:24:20;25.00;;;15.60;;
56122;SDS011;42426;46.104;19.656;2023-12-14T03:26:46;22.90;;;14.30;;
56122;SDS011;42426;46.104;19.656;2023-12-14T03:29:12;20.77;;;13.88;;
56122;SDS011;42426;46.104;19.656;2023-12-14T03:31:39;19.83;;;13.18;;
56122;SDS011;42426;46.104;19.656;2023-12-14T03:34:05;19.17;;;13.70;;
56122;SDS011;42426;46.104;19.656;2023-12-14T03:36:31;17.80;;;12.25;;
56122;SDS011;42426;46.104;19.656;2023-12-14T03:38:57;15.63;;;10.93;;
56122;SDS011;42426;46.104;19.656;2023-12-14T03:41:23;19.40;;;11.50;;
56122;SDS011;42426;46.104;19.656;2023-12-14T03:43:49;16.92;;;11.70;;
56122;SDS011;42426;46.104;19.656;2023-12-14T03:46:15;15.73;;;10.77;;
56122;SDS011;42426;46.104;19.656;2023-12-14T03:48:41;13.93;;;10.90;;
56122;SDS011;42426;46.104;19.656;2023-12-14T03:51:07;13.98;;;10.65;;
56122;SDS011;42426;46.104;19.656;2023-12-14T03:53:33;13.70;;;11.13;;
56122;SDS011;42426;46.104;19.656;2023-12-14T03:56:01;15.30;;;11.52;;
56122;SDS011;42426;46.104;19.656;2023-12-14T03:58:27;17.90;;;12.82;;
56122;SDS011;42426;46.104;19.656;2023-12-14T04:00:53;21.08;;;13.40;;
56122;SDS011;42426;46.104;19.656;2023-12-14T04:03:19;20.38;;;14.15;;
56122;SDS011;42426;46.104;19.656;2023-12-14T04:05:45;28.08;;;18.55;;
56122;SDS011;42426;46.104;19.656;2023-12-14T04:08:11;35.72;;;23.52;;
56122;SDS011;42426;46.104;19.656;2023-12-14T04:10:37;40.58;;;25.63;;
56122;SDS011;42426;46.104;19.656;2023-12-14T04:13:03;32.75;;;20.85;;
56122;SDS011;42426;46.104;19.656;2023-12-14T04:15:30;29.95;;;19.92;;
56122;SDS011;42426;46.104;19.656;2023-12-14T04:17:56;30.38;;;18.75;;
56122;SDS011;42426;46.104;19.656;2023-12-14T04:20:23;33.90;;;22.45;;
56122;SDS011;42426;46.104;19.656;2023-12-14T04:22:50;29.88;;;18.52;;
56122;SDS011;42426;46.104;19.656;2023-12-14T04:25:16;24.35;;;15.73;;
56122;SDS011;42426;46.104;19.656;2023-12-14T04:27:42;22.83;;;15.07;;
56122;SDS011;42426;46.104;19.656;2023-12-14T04:30:08;26.00;;;17.20;;
56122;SDS011;42426;46.104;19.656;2023-12-14T04:32:38;24.30;;;15.27;;
56122;SDS011;42426;46.104;19.656;2023-12-14T04:35:05;26.60;;;15.90;;
56122;SDS011;42426;46.104;19.656;2023-12-14T04:37:31;22.15;;;14.00;;
56122;SDS011;42426;46.104;19.656;2023-12-14T04:39:57;25.52;;;15.63;;
56122;SDS011;42426;46.104;19.656;2023-12-14T04:42:23;28.80;;;17.50;;
56122;SDS011;42426;46.104;19.656;2023-12-14T04:44:49;33.35;;;19.25;;
56122;SDS011;42426;46.104;19.656;2023-12-14T04:47:15;35.58;;;21.05;;
56122;SDS011;42426;46.104;19.656;2023-12-14T04:49:42;33.58;;;19.55;;
56122;SDS011;42426;46.104;19.656;2023-12-14T04:52:08;63.03;;;33.55;;
56122;SDS011;42426;46.104;19.656;2023-12-14T04:54:34;51.20;;;28.00;;
56122;SDS011;42426;46.104;19.656;2023-12-14T04:57:03;36.33;;;21.23;;
56122;SDS011;42426;46.104;19.656;2023-12-14T04:59:29;26.33;;;15.70;;
56122;SDS011;42426;46.104;19.656;2023-12-14T05:01:55;22.75;;;15.27;;
56122;SDS011;42426;46.104;19.656;2023-12-14T05:04:21;24.88;;;18.02;;
56122;SDS011;42426;46.104;19.656;2023-12-14T05:06:47;27.77;;;16.45;;
56122;SDS011;42426;46.104;19.656;2023-12-14T05:09:13;30.10;;;16.95;;
56122;SDS011;42426;46.104;19.656;2023-12-14T05:11:40;28.83;;;15.75;;
56122;SDS011;42426;46.104;19.656;2023-12-14T05:14:06;28.52;;;15.95;;
56122;SDS011;42426;46.104;19.656;2023-12-14T05:16:32;26.52;;;14.93;;
56122;SDS011;42426;46.104;19.656;2023-12-14T05:18:59;33.35;;;17.48;;
56122;SDS011;42426;46.104;19.656;2023-12-14T05:21:25;27.23;;;16.30;;
56122;SDS011;42426;46.104;19.656;2023-12-14T05:23:51;27.40;;;17.00;;
56122;SDS011;42426;46.104;19.656;2023-12-14T05:26:20;24.20;;;13.95;;
56122;SDS011;42426;46.104;19.656;2023-12-14T05:28:46;26.80;;;16.85;;
56122;SDS011;42426;46.104;19.656;2023-12-14T05:31:12;26.25;;;15.85;;
56122;SDS011;42426;46.104;19.656;2023-12-14T05:33:38;27.58;;;16.20;;
56122;SDS011;42426;46.104;19.656;2023-12-14T05:36:05;26.75;;;16.88;;
56122;SDS011;42426;46.104;19.656;2023-12-14T05:38:35;27.75;;;16.33;;
56122;SDS011;42426;46.104;19.656;2023-12-14T05:41:01;26.15;;;15.05;;
56122;SDS011;42426;46.104;19.656;2023-12-14T05:43:27;27.02;;;15.93;;
56122;SDS011;42426;46.104;19.656;2023-12-14T05:45:54;31.92;;;15.68;;
56122;SDS011;42426;46.104;19.656;2023-12-14T05:48:20;30.05;;;17.30;;
56122;SDS011;42426;46.104;19.656;2023-12-14T05:50:46;29.67;;;15.88;;
56122;SDS011;42426;46.104;19.656;2023-12-14T05:53:13;33.55;;;18.42;;
56122;SDS011;42426;46.104;19.656;2023-12-14T05:55:39;35.70;;;19.40;;
56122;SDS011;42426;46.104;19.656;2023-12-14T05:58:06;38.75;;;21.73;;
56122;SDS011;42426;46.104;19.656;2023-12-14T06:00:32;45.25;;;22.45;;
56122;SDS011;42426;46.104;19.656;2023-12-14T06:03:00;37.28;;;20.05;;
56122;SDS011;42426;46.104;19.656;2023-12-14T06:05:26;34.30;;;18.20;;
56122;SDS011;42426;46.104;19.656;2023-12-14T06:07:52;36.17;;;17.88;;
56122;SDS011;42426;46.104;19.656;2023-12-14T06:10:19;37.08;;;17.05;;
56122;SDS011;42426;46.104;19.656;2023-12-14T06:12:46;37.58;;;16.42;;
56122;SDS011;42426;46.104;19.656;2023-12-14T06:15:12;33.03;;;16.73;;
56122;SDS011;42426;46.104;19.656;2023-12-14T06:17:39;39.88;;;20.77;;
56122;SDS011;42426;46.104;19.656;2023-12-14T06:20:07;33.65;;;18.88;;
56122;SDS011;42426;46.104;19.656;2023-12-14T06:22:33;36.50;;;18.38;;
56122;SDS011;42426;46.104;19.656;2023-12-14T06:25:00;36.42;;;18.50;;
56122;SDS011;42426;46.104;19.656;2023-12-14T06:27:26;36.92;;;17.77;;
56122;SDS011;42426;46.104;19.656;2023-12-14T06:29:52;32.53;;;19.15;;
56122;SDS011;42426;46.104;19.656;2023-12-14T06:32:18;37.97;;;18.27;;
56122;SDS011;42426;46.104;19.656;2023-12-14T06:34:46;32.47;;;18.85;;
56122;SDS011;42426;46.104;19.656;2023-12-14T06:37:12;41.67;;;19.98;;
56122;SDS011;42426;46.104;19.656;2023-12-14T06:39:38;37.65;;;18.73;;
56122;SDS011;42426;46.104;19.656;2023-12-14T06:42:06;34.97;;;18.95;;
56122;SDS011;42426;46.104;19.656;2023-12-14T06:44:32;50.72;;;25.13;;
56122;SDS011;42426;46.104;19.656;2023-12-14T06:46:58;57.20;;;30.02;;
56122;SDS011;42426;46.104;19.656;2023-12-14T06:49:24;47.28;;;24.92;;
56122;SDS011;42426;46.104;19.656;2023-12-14T06:51:51;40.08;;;19.63;;
56122;SDS011;42426;46.104;19.656;2023-12-14T06:54:17;46.40;;;23.17;;
56122;SDS011;42426;46.104;19.656;2023-12-14T06:56:44;43.55;;;23.30;;
56122;SDS011;42426;46.104;19.656;2023-12-14T06:59:11;43.88;;;23.80;;
56122;SDS011;42426;46.104;19.656;2023-12-14T07:01:37;59.47;;;32.88;;
56122;SDS011;42426;46.104;19.656;2023-12-14T07:04:03;44.50;;;23.92;;
56122;SDS011;42426;46.104;19.656;2023-12-14T07:06:29;40.83;;;22.33;;
56122;SDS011;42426;46.104;19.656;2023-12-14T07:08:55;40.72;;;23.30;;
56122;SDS011;42426;46.104;19.656;2023-12-14T07:11:22;44.28;;;23.98;;
56122;SDS011;42426;46.104;19.656;2023-12-14T07:13:48;55.53;;;29.55;;
56122;SDS011;42426;46.104;19.656;2023-12-14T07:16:15;55.10;;;31.00;;
56122;SDS011;42426;46.104;19.656;2023-12-14T07:18:42;57.15;;;37.70;;
56122;SDS011;42426;46.104;19.656;2023-12-14T07:21:09;55.85;;;34.05;;
56122;SDS011;42426;46.104;19.656;2023-12-14T07:23:35;50.15;;;31.08;;
56122;SDS011;42426;46.104;19.656;2023-12-14T07:26:02;48.83;;;29.33;;
56122;SDS011;42426;46.104;19.656;2023-12-14T07:28:28;50.85;;;27.42;;
56122;SDS011;42426;46.104;19.656;2023-12-14T07:30:54;38.38;;;21.63;;
56122;SDS011;42426;46.104;19.656;2023-12-14T07:33:21;45.03;;;25.48;;
56122;SDS011;42426;46.104;19.656;2023-12-14T07:35:47;44.80;;;28.30;;
56122;SDS011;42426;46.104;19.656;2023-12-14T07:38:13;44.70;;;25.45;;
56122;SDS011;42426;46.104;19.656;2023-12-14T07:40:39;46.72;;;25.55;;
56122;SDS011;42426;46.104;19.656;2023-12-14T07:43:06;44.17;;;24.77;;
56122;SDS011;42426;46.104;19.656;2023-12-14T07:45:33;53.20;;;29.17;;
56122;SDS011;42426;46.104;19.656;2023-12-14T07:47:59;52.38;;;29.83;;
56122;SDS011;42426;46.104;19.656;2023-12-14T07:50:26;45.40;;;24.35;;
56122;SDS011;42426;46.104;19.656;2023-12-14T07:52:52;46.67;;;25.75;;
56122;SDS011;42426;46.104;19.656;2023-12-14T07:55:19;49.40;;;28.88;;
56122;SDS011;42426;46.104;19.656;2023-12-14T07:57:45;52.65;;;27.10;;
56122;SDS011;42426;46.104;19.656;2023-12-14T08:00:12;50.33;;;27.85;;
56122;SDS011;42426;46.104;19.656;2023-12-14T08:02:38;50.47;;;28.23;;
56122;SDS011;42426;46.104;19.656;2023-12-14T08:05:04;46.30;;;25.95;;
56122;SDS011;42426;46.104;19.656;2023-12-14T08:07:31;42.50;;;24.85;;
56122;SDS011;42426;46.104;19.656;2023-12-14T08:09:58;42.63;;;26.20;;
56122;SDS011;42426;46.104;19.656;2023-12-14T08:12:24;46.13;;;26.35;;
56122;SDS011;42426;46.104;19.656;2023-12-14T08:14:50;40.22;;;24.23;;
56122;SDS011;42426;46.104;19.656;2023-12-14T08:17:17;40.70;;;23.23;;
56122;SDS011;42426;46.104;19.656;2023-12-14T08:19:43;47.08;;;29.08;;
56122;SDS011;42426;46.104;19.656;2023-12-14T08:22:10;59.42;;;35.83;;
56122;SDS011;42426;46.104;19.656;2023-12-14T08:24:40;48.00;;;28.35;;
56122;SDS011;42426;46.104;19.656;2023-12-14T08:27:06;70.10;;;44.03;;
56122;SDS011;42426;46.104;19.656;2023-12-14T08:29:32;100.90;;;67.68;;
56122;SDS011;42426;46.104;19.656;2023-12-14T08:31:58;61.15;;;39.67;;
56122;SDS011;42426;46.104;19.656;2023-12-14T08:34:25;45.65;;;28.00;;
56122;SDS011;42426;46.104;19.656;2023-12-14T08:36:51;59.75;;;34.20;;
56122;SDS011;42426;46.104;19.656;2023-12-14T08:39:17;75.40;;;41.10;;
56122;SDS011;42426;46.104;19.656;2023-12-14T08:41:45;79.22;;;43.15;;
56122;SDS011;42426;46.104;19.656;2023-12-14T08:44:11;62.38;;;35.45;;
56122;SDS011;42426;46.104;19.656;2023-12-14T08:46:42;68.45;;;38.80;;
56122;SDS011;42426;46.104;19.656;2023-12-14T08:49:08;74.57;;;43.47;;
56122;SDS011;42426;46.104;19.656;2023-12-14T08:51:35;67.72;;;41.97;;
56122;SDS011;42426;46.104;19.656;2023-12-14T08:54:01;43.33;;;27.38;;
56122;SDS011;42426;46.104;19.656;2023-12-14T08:56:27;61.17;;;33.83;;
56122;SDS011;42426;46.104;19.656;2023-12-14T08:58:55;74.18;;;44.28;;
56122;SDS011;42426;46.104;19.656;2023-12-14T09:01:22;69.55;;;44.35;;
56122;SDS011;42426;46.104;19.656;2023-12-14T09:03:49;43.85;;;28.17;;
56122;SDS011;42426;46.104;19.656;2023-12-14T09:06:16;40.65;;;25.80;;
56122;SDS011;42426;46.104;19.656;2023-12-14T09:08:42;84.82;;;55.35;;
56122;SDS011;42426;46.104;19.656;2023-12-14T09:11:09;52.95;;;33.00;;
56122;SDS011;42426;46.104;19.656;2023-12-14T09:13:35;37.35;;;24.10;;
56122;SDS011;42426;46.104;19.656;2023-12-14T09:16:01;82.70;;;40.03;;
56122;SDS011;42426;46.104;19.656;2023-12-14T09:18:28;60.22;;;35.13;;
56122;SDS011;42426;46.104;19.656;2023-12-14T09:20:54;36.17;;;24.63;;
56122;SDS011;42426;46.104;19.656;2023-12-14T09:23:20;36.55;;;23.17;;
56122;SDS011;42426;46.104;19.656;2023-12-14T09:25:46;54.13;;;28.30;;
56122;SDS011;42426;46.104;19.656;2023-12-14T09:28:12;74.90;;;33.42;;
56122;SDS011;42426;46.104;19.656;2023-12-14T09:30:38;51.72;;;27.20;;
56122;SDS011;42426;46.104;19.656;2023-12-14T09:33:05;41.60;;;25.40;;
56122;SDS011;42426;46.104;19.656;2023-12-14T09:35:33;41.42;;;26.35;;
56122;SDS011;42426;46.104;19.656;2023-12-14T09:38:02;35.92;;;24.33;;
56122;SDS011;42426;46.104;19.656;2023-12-14T09:40:28;35.40;;;22.38;;
56122;SDS011;42426;46.104;19.656;2023-12-14T09:42:54;35.00;;;23.65;;
56122;SDS011;42426;46.104;19.656;2023-12-14T09:45:23;43.55;;;23.33;;
56122;SDS011;42426;46.104;19.656;2023-12-14T09:47:50;45.17;;;26.75;;
56122;SDS011;42426;46.104;19.656;2023-12-14T09:50:17;40.20;;;25.98;;
56122;SDS011;42426;46.104;19.656;2023-12-14T09:52:43;37.92;;;22.88;;
56122;SDS011;42426;46.104;19.656;2023-12-14T09:55:10;43.65;;;26.13;;
56122;SDS011;42426;46.104;19.656;2023-12-14T09:57:37;41.00;;;24.27;;
56122;SDS011;42426;46.104;19.656;2023-12-14T10:00:03;42.08;;;25.58;;
56122;SDS011;42426;46.104;19.656;2023-12-14T10:02:32;39.35;;;27.25;;
56122;SDS011;42426;46.104;19.656;2023-12-14T10:04:58;34.63;;;21.02;;
56122;SDS011;42426;46.104;19.656;2023-12-14T10:07:24;28.40;;;19.63;;
56122;SDS011;42426;46.104;19.656;2023-12-14T10:09:50;28.63;;;19.77;;
56122;SDS011;42426;46.104;19.656;2023-12-14T10:12:19;28.13;;;19.00;;
56122;SDS011;42426;46.104;19.656;2023-12-14T10:14:47;27.42;;;18.85;;
56122;SDS011;42426;46.104;19.656;2023-12-14T10:17:19;33.78;;;20.60;;
56122;SDS011;42426;46.104;19.656;2023-12-14T10:19:46;31.52;;;23.02;;
56122;SDS011;42426;46.104;19.656;2023-12-14T10:22:16;30.30;;;20.80;;
56122;SDS011;42426;46.104;19.656;2023-12-14T10:24:51;31.00;;;21.23;;
56122;SDS011;42426;46.104;19.656;2023-12-14T10:27:17;27.55;;;18.90;;
56122;SDS011;42426;46.104;19.656;2023-12-14T10:29:44;25.65;;;18.08;;
56122;SDS011;42426;46.104;19.656;2023-12-14T10:32:13;34.40;;;24.30;;
56122;SDS011;42426;46.104;19.656;2023-12-14T10:34:39;45.10;;;30.77;;
56122;SDS011;42426;46.104;19.656;2023-12-14T10:37:06;31.95;;;21.77;;
56122;SDS011;42426;46.104;19.656;2023-12-14T10:39:33;36.03;;;24.10;;
56122;SDS011;42426;46.104;19.656;2023-12-14T10:42:02;34.10;;;23.27;;
56122;SDS011;42426;46.104;19.656;2023-12-14T10:44:33;33.88;;;20.95;;
56122;SDS011;42426;46.104;19.656;2023-12-14T10:47:01;30.08;;;19.75;;
56122;SDS011;42426;46.104;19.656;2023-12-14T10:49:29;31.08;;;20.00;;
56122;SDS011;42426;46.104;19.656;2023-12-14T10:51:56;40.90;;;28.20;;
56122;SDS011;42426;46.104;19.656;2023-12-14T10:54:23;45.03;;;31.48;;
56122;SDS011;42426;46.104;19.656;2023-12-14T10:56:50;41.30;;;27.40;;
56122;SDS011;42426;46.104;19.656;2023-12-14T10:59:20;36.78;;;25.23;;
56122;SDS011;42426;46.104;19.656;2023-12-14T11:01:51;37.88;;;26.27;;
56122;SDS011;42426;46.104;19.656;2023-12-14T11:04:18;35.47;;;25.60;;
56122;SDS011;42426;46.104;19.656;2023-12-14T11:06:45;36.00;;;22.50;;
56122;SDS011;42426;46.104;19.656;2023-12-14T11:09:13;33.35;;;22.80;;
56122;SDS011;42426;46.104;19.656;2023-12-14T11:14:18;33.88;;;21.95;;
56122;SDS011;42426;46.104;19.656;2023-12-14T11:16:44;39.85;;;21.55;;
56122;SDS011;42426;46.104;19.656;2023-12-14T11:21:47;34.75;;;22.90;;
56122;SDS011;42426;46.104;19.656;2023-12-14T11:24:13;34.90;;;23.63;;
56122;SDS011;42426;46.104;19.656;2023-12-14T11:26:42;70.47;;;35.88;;
56122;SDS011;42426;46.104;19.656;2023-12-14T11:29:08;66.95;;;37.45;;
56122;SDS011;42426;46.104;19.656;2023-12-14T11:31:35;57.78;;;34.67;;
56122;SDS011;42426;46.104;19.656;2023-12-14T11:34:02;85.57;;;43.28;;
56122;SDS011;42426;46.104;19.656;2023-12-14T11:36:29;54.72;;;32.95;;
56122;SDS011;42426;46.104;19.656;2023-12-14T11:38:55;53.22;;;32.75;;
56122;SDS011;42426;46.104;19.656;2023-12-14T11:41:21;45.95;;;30.90;;
56122;SDS011;42426;46.104;19.656;2023-12-14T11:43:50;52.35;;;33.95;;
56122;SDS011;42426;46.104;19.656;2023-12-14T11:46:16;47.10;;;28.90;;
56122;SDS011;42426;46.104;19.656;2023-12-14T11:48:45;68.40;;;42.45;;
56122;SDS011;42426;46.104;19.656;2023-12-14T11:51:13;44.90;;;27.95;;
56122;SDS011;42426;46.104;19.656;2023-12-14T11:53:45;32.80;;;21.80;;
56122;SDS011;42426;46.104;19.656;2023-12-14T11:56:12;34.78;;;23.42;;
56122;SDS011;42426;46.104;19.656;2023-12-14T11:58:41;38.90;;;27.35;;
56122;SDS011;42426;46.104;19.656;2023-12-14T12:01:11;34.60;;;22.02;;
56122;SDS011;42426;46.104;19.656;2023-12-14T12:03:37;46.75;;;30.65;;
56122;SDS011;42426;46.104;19.656;2023-12-14T12:06:09;72.75;;;40.03;;
56122;SDS011;42426;46.104;19.656;2023-12-14T12:08:46;48.28;;;29.70;;
56122;SDS011;42426;46.104;19.656;2023-12-14T12:11:19;54.85;;;33.78;;
56122;SDS011;42426;46.104;19.656;2023-12-14T12:14:04;69.57;;;40.03;;
56122;SDS011;42426;46.104;19.656;2023-12-14T12:18:57;45.35;;;28.15;;
56122;SDS011;42426;46.104;19.656;2023-12-14T12:21:23;42.60;;;27.48;;
56122;SDS011;42426;46.104;19.656;2023-12-14T12:23:49;37.28;;;25.35;;
56122;SDS011;42426;46.104;19.656;2023-12-14T12:26:15;29.80;;;19.88;;
56122;SDS011;42426;46.104;19.656;2023-12-14T12:28:41;34.63;;;23.17;;
56122;SDS011;42426;46.104;19.656;2023-12-14T12:31:07;34.80;;;20.70;;
56122;SDS011;42426;46.104;19.656;2023-12-14T12:33:34;26.00;;;16.70;;
56122;SDS011;42426;46.104;19.656;2023-12-14T12:36:02;24.98;;;15.98;;
56122;SDS011;42426;46.104;19.656;2023-12-14T12:38:29;23.08;;;16.45;;
56122;SDS011;42426;46.104;19.656;2023-12-14T12:40:55;27.23;;;16.75;;
56122;SDS011;42426;46.104;19.656;2023-12-14T12:43:26;22.70;;;14.98;;
56122;SDS011;42426;46.104;19.656;2023-12-14T12:45:52;20.13;;;13.82;;
56122;SDS011;42426;46.104;19.656;2023-12-14T12:48:18;22.58;;;15.93;;
56122;SDS011;42426;46.104;19.656;2023-12-14T12:50:44;39.05;;;23.48;;
56122;SDS011;42426;46.104;19.656;2023-12-14T12:53:11;28.67;;;17.63;;
56122;SDS011;42426;46.104;19.656;2023-12-14T12:55:37;31.05;;;19.13;;
56122;SDS011;42426;46.104;19.656;2023-12-14T12:58:03;23.55;;;15.48;;
56122;SDS011;42426;46.104;19.656;2023-12-14T13:00:32;23.50;;;15.25;;
56122;SDS011;42426;46.104;19.656;2023-12-14T13:03:00;19.77;;;14.80;;
56122;SDS011;42426;46.104;19.656;2023-12-14T13:05:27;23.85;;;14.80;;
56122;SDS011;42426;46.104;19.656;2023-12-14T13:07:54;22.45;;;16.48;;
56122;SDS011;42426;46.104;19.656;2023-12-14T13:10:20;24.77;;;17.77;;
56122;SDS011;42426;46.104;19.656;2023-12-14T13:12:52;23.60;;;17.20;;
56122;SDS011;42426;46.104;19.656;2023-12-14T13:15:19;24.38;;;20.00;;
56122;SDS011;42426;46.104;19.656;2023-12-14T13:17:49;38.40;;;25.42;;
56122;SDS011;42426;46.104;19.656;2023-12-14T13:20:15;35.63;;;26.30;;
56122;SDS011;42426;46.104;19.656;2023-12-14T13:22:41;31.02;;;23.70;;
56122;SDS011;42426;46.104;19.656;2023-12-14T13:25:07;20.27;;;14.65;;
56122;SDS011;42426;46.104;19.656;2023-12-14T13:27:34;21.52;;;14.48;;
56122;SDS011;42426;46.104;19.656;2023-12-14T13:30:01;18.33;;;13.75;;
56122;SDS011;42426;46.104;19.656;2023-12-14T13:32:28;18.58;;;13.38;;
56122;SDS011;42426;46.104;19.656;2023-12-14T13:34:54;25.70;;;16.27;;
56122;SDS011;42426;46.104;19.656;2023-12-14T13:37:21;25.42;;;16.88;;
56122;SDS011;42426;46.104;19.656;2023-12-14T13:39:47;41.28;;;26.23;;
56122;SDS011;42426;46.104;19.656;2023-12-14T13:42:14;33.60;;;20.83;;
56122;SDS011;42426;46.104;19.656;2023-12-14T13:44:41;54.53;;;29.92;;
56122;SDS011;42426;46.104;19.656;2023-12-14T13:47:08;53.83;;;32.00;;
56122;SDS011;42426;46.104;19.656;2023-12-14T13:49:34;57.00;;;34.63;;
56122;SDS011;42426;46.104;19.656;2023-12-14T13:52:00;48.88;;;31.60;;
56122;SDS011;42426;46.104;19.656;2023-12-14T13:54:26;60.85;;;35.78;;
56122;SDS011;42426;46.104;19.656;2023-12-14T13:56:52;56.08;;;32.47;;
56122;SDS011;42426;46.104;19.656;2023-12-14T13:59:19;42.00;;;24.05;;
56122;SDS011;42426;46.104;19.656;2023-12-14T14:01:46;54.05;;;30.50;;
56122;SDS011;42426;46.104;19.656;2023-12-14T14:04:16;35.20;;;24.13;;
56122;SDS011;42426;46.104;19.656;2023-12-14T14:06:42;55.92;;;32.90;;
56122;SDS011;42426;46.104;19.656;2023-12-14T14:09:08;60.67;;;33.28;;
56122;SDS011;42426;46.104;19.656;2023-12-14T14:11:35;42.90;;;27.67;;
56122;SDS011;42426;46.104;19.656;2023-12-14T14:14:01;35.00;;;19.95;;
56122;SDS011;42426;46.104;19.656;2023-12-14T14:16:29;20.25;;;12.77;;